sensor_id;sensor_type;location;lat;lon;timestamp;temperature;humidity
23869;DHT22;12115;47.128;15.422;2023-05-02T00:00:24;13.40;99.90
23869;DHT22;12115;47.128;15.422;2023-05-02T00:02:52;13.40;99.90
23869;DHT22;12115;47.128;15.422;2023-05-02T00:05:23;13.40;99.90
23869;DHT22;12115;47.128;15.422;2023-05-02T00:07:50;13.20;99.90
23869;DHT22;12115;47.128;15.422;2023-05-02T00:10:18;13.20;99.90
23869;DHT22;12115;47.128;15.422;2023-05-02T00:12:46;13.20;99.90
23869;DHT22;12115;47.128;15.422;2023-05-02T00:15:23;13.30;99.90
23869;DHT22;12115;47.128;15.422;2023-05-02T00:17:50;13.30;99.90
23869;DHT22;12115;47.128;15.422;2023-05-02T00:20:18;13.30;99.90
23869;DHT22;12115;47.128;15.422;2023-05-02T00:22:45;13.30;99.90
23869;DHT22;12115;47.128;15.422;2023-05-02T00:25:13;13.30;99.90
23869;DHT22;12115;47.128;15.422;2023-05-02T00:27:43;13.30;99.90
23869;DHT22;12115;47.128;15.422;2023-05-02T00:30:13;13.20;99.90
23869;DHT22;12115;47.128;15.422;2023-05-02T00:32:40;13.20;99.90
23869;DHT22;12115;47.128;15.422;2023-05-02T00:35:08;13.10;99.90
23869;DHT22;12115;47.128;15.422;2023-05-02T00:37:35;13.10;99.90
23869;DHT22;12115;47.128;15.422;2023-05-02T00:40:03;13.10;99.90
23869;DHT22;12115;47.128;15.422;2023-05-02T00:42:49;13.10;99.90
23869;DHT22;12115;47.128;15.422;2023-05-02T00:45:16;13.10;99.90
23869;DHT22;12115;47.128;15.422;2023-05-02T00:47:44;13.10;99.90
23869;DHT22;12115;47.128;15.422;2023-05-02T00:50:11;13.10;99.90
23869;DHT22;12115;47.128;15.422;2023-05-02T00:52:39;13.00;99.90
23869;DHT22;12115;47.128;15.422;2023-05-02T00:55:07;13.00;99.90
23869;DHT22;12115;47.128;15.422;2023-05-02T00:57:34;12.90;99.90
23869;DHT22;12115;47.128;15.422;2023-05-02T01:00:01;12.90;99.90
23869;DHT22;12115;47.128;15.422;2023-05-02T01:02:44;12.90;99.90
23869;DHT22;12115;47.128;15.422;2023-05-02T01:05:16;12.90;99.90
23869;DHT22;12115;47.128;15.422;2023-05-02T01:08:02;12.80;99.90
23869;DHT22;12115;47.128;15.422;2023-05-02T01:10:45;12.80;99.90
23869;DHT22;12115;47.128;15.422;2023-05-02T01:15:44;12.80;99.90
23869;DHT22;12115;47.128;15.422;2023-05-02T01:18:15;12.80;99.90
23869;DHT22;12115;47.128;15.422;2023-05-02T01:20:45;12.80;99.90
23869;DHT22;12115;47.128;15.422;2023-05-02T01:31:44;12.70;99.90
23869;DHT22;12115;47.128;15.422;2023-05-02T01:34:12;12.70;99.90
23869;DHT22;12115;47.128;15.422;2023-05-02T01:36:42;12.70;99.90
23869;DHT22;12115;47.128;15.422;2023-05-02T01:39:17;12.60;99.90
23869;DHT22;12115;47.128;15.422;2023-05-02T01:41:47;12.60;99.90
23869;DHT22;12115;47.128;15.422;2023-05-02T01:44:16;12.60;99.90
23869;DHT22;12115;47.128;15.422;2023-05-02T01:46:45;12.60;99.90
23869;DHT22;12115;47.128;15.422;2023-05-02T01:49:14;12.60;99.90
23869;DHT22;12115;47.128;15.422;2023-05-02T01:51:48;12.60;99.90
23869;DHT22;12115;47.128;15.422;2023-05-02T01:54:19;12.60;99.90
23869;DHT22;12115;47.128;15.422;2023-05-02T01:56:48;12.60;99.90
23869;DHT22;12115;47.128;15.422;2023-05-02T01:59:21;12.60;99.90
23869;DHT22;12115;47.128;15.422;2023-05-02T02:01:50;12.60;99.90
23869;DHT22;12115;47.128;15.422;2023-05-02T02:04:19;12.60;99.90
23869;DHT22;12115;47.128;15.422;2023-05-02T02:06:52;12.50;99.90
23869;DHT22;12115;47.128;15.422;2023-05-02T02:09:31;12.50;99.90
23869;DHT22;12115;47.128;15.422;2023-05-02T02:12:05;12.50;99.90
23869;DHT22;12115;47.128;15.422;2023-05-02T02:14:36;12.60;99.90
23869;DHT22;12115;47.128;15.422;2023-05-02T02:17:17;12.60;99.90
23869;DHT22;12115;47.128;15.422;2023-05-02T02:19:52;12.50;99.90
23869;DHT22;12115;47.128;15.422;2023-05-02T02:22:23;12.50;99.90
23869;DHT22;12115;47.128;15.422;2023-05-02T02:24:53;12.40;99.90
23869;DHT22;12115;47.128;15.422;2023-05-02T02:27:20;12.50;99.90
23869;DHT22;12115;47.128;15.422;2023-05-02T02:29:48;12.40;99.90
23869;DHT22;12115;47.128;15.422;2023-05-02T02:32:16;12.40;99.90
23869;DHT22;12115;47.128;15.422;2023-05-02T02:34:43;12.40;99.90
23869;DHT22;12115;47.128;15.422;2023-05-02T02:37:17;12.40;99.90
23869;DHT22;12115;47.128;15.422;2023-05-02T02:39:53;12.40;99.90
23869;DHT22;12115;47.128;15.422;2023-05-02T02:42:54;12.40;99.90
23869;DHT22;12115;47.128;15.422;2023-05-02T02:45:47;12.40;99.90
23869;DHT22;12115;47.128;15.422;2023-05-02T02:51:52;12.40;99.90
23869;DHT22;12115;47.128;15.422;2023-05-02T02:54:28;12.40;99.90
23869;DHT22;12115;47.128;15.422;2023-05-02T02:57:02;12.40;99.90
23869;DHT22;12115;47.128;15.422;2023-05-02T02:59:34;12.40;99.90
23869;DHT22;12115;47.128;15.422;2023-05-02T03:02:11;12.40;99.90
23869;DHT22;12115;47.128;15.422;2023-05-02T03:04:40;12.40;99.90
23869;DHT22;12115;47.128;15.422;2023-05-02T03:07:09;12.30;99.90
23869;DHT22;12115;47.128;15.422;2023-05-02T03:09:44;12.30;99.90
23869;DHT22;12115;47.128;15.422;2023-05-02T03:12:29;12.40;99.90
23869;DHT22;12115;47.128;15.422;2023-05-02T03:17:48;12.40;99.90
23869;DHT22;12115;47.128;15.422;2023-05-02T03:20:15;12.40;99.90
23869;DHT22;12115;47.128;15.422;2023-05-02T03:22:43;12.30;99.90
23869;DHT22;12115;47.128;15.422;2023-05-02T03:25:11;12.20;99.90
23869;DHT22;12115;47.128;15.422;2023-05-02T03:27:43;12.20;99.90
23869;DHT22;12115;47.128;15.422;2023-05-02T03:30:11;12.30;99.90
23869;DHT22;12115;47.128;15.422;2023-05-02T03:32:45;12.30;99.90
23869;DHT22;12115;47.128;15.422;2023-05-02T03:35:12;12.30;99.90
23869;DHT22;12115;47.128;15.422;2023-05-02T03:37:43;12.30;99.90
23869;DHT22;12115;47.128;15.422;2023-05-02T03:40:11;12.30;99.90
23869;DHT22;12115;47.128;15.422;2023-05-02T03:42:38;12.30;99.90
23869;DHT22;12115;47.128;15.422;2023-05-02T03:45:21;12.30;99.90
23869;DHT22;12115;47.128;15.422;2023-05-02T03:47:51;12.30;99.90
23869;DHT22;12115;47.128;15.422;2023-05-02T03:50:21;12.30;99.90
23869;DHT22;12115;47.128;15.422;2023-05-02T03:52:56;12.30;99.90
23869;DHT22;12115;47.128;15.422;2023-05-02T03:55:41;12.30;99.90
23869;DHT22;12115;47.128;15.422;2023-05-02T03:58:16;12.30;99.90
23869;DHT22;12115;47.128;15.422;2023-05-02T04:00:44;12.30;99.90
23869;DHT22;12115;47.128;15.422;2023-05-02T04:03:19;12.30;99.90
23869;DHT22;12115;47.128;15.422;2023-05-02T04:05:46;12.30;99.90
23869;DHT22;12115;47.128;15.422;2023-05-02T04:08:16;12.30;99.90
23869;DHT22;12115;47.128;15.422;2023-05-02T04:10:44;12.30;99.90
23869;DHT22;12115;47.128;15.422;2023-05-02T04:13:13;12.30;99.90
23869;DHT22;12115;47.128;15.422;2023-05-02T04:15:44;12.30;99.90
23869;DHT22;12115;47.128;15.422;2023-05-02T04:18:16;12.30;99.90
23869;DHT22;12115;47.128;15.422;2023-05-02T04:20:43;12.30;99.90
23869;DHT22;12115;47.128;15.422;2023-05-02T04:23:15;12.30;99.90
23869;DHT22;12115;47.128;15.422;2023-05-02T04:25:54;12.30;99.90
23869;DHT22;12115;47.128;15.422;2023-05-02T04:28:33;12.20;99.90
23869;DHT22;12115;47.128;15.422;2023-05-02T04:31:01;12.30;99.90
23869;DHT22;12115;47.128;15.422;2023-05-02T04:33:31;12.30;99.90
23869;DHT22;12115;47.128;15.422;2023-05-02T04:35:59;12.30;99.90
23869;DHT22;12115;47.128;15.422;2023-05-02T04:38:27;12.30;99.90
23869;DHT22;12115;47.128;15.422;2023-05-02T04:40:54;12.30;99.90
23869;DHT22;12115;47.128;15.422;2023-05-02T04:43:54;12.30;99.90
23869;DHT22;12115;47.128;15.422;2023-05-02T04:46:22;12.30;99.90
23869;DHT22;12115;47.128;15.422;2023-05-02T04:48:49;12.30;99.90
23869;DHT22;12115;47.128;15.422;2023-05-02T04:51:35;12.30;99.90
23869;DHT22;12115;47.128;15.422;2023-05-02T04:54:03;12.20;99.90
23869;DHT22;12115;47.128;15.422;2023-05-02T04:56:31;12.20;99.90
23869;DHT22;12115;47.128;15.422;2023-05-02T04:58:58;12.10;99.90
23869;DHT22;12115;47.128;15.422;2023-05-02T05:01:27;12.10;99.90
23869;DHT22;12115;47.128;15.422;2023-05-02T05:03:56;12.20;99.90
23869;DHT22;12115;47.128;15.422;2023-05-02T05:06:24;12.30;99.90
23869;DHT22;12115;47.128;15.422;2023-05-02T05:08:59;12.30;99.90
23869;DHT22;12115;47.128;15.422;2023-05-02T05:11:26;12.20;99.90
23869;DHT22;12115;47.128;15.422;2023-05-02T05:14:19;12.10;99.90
23869;DHT22;12115;47.128;15.422;2023-05-02T05:16:51;12.20;99.90
23869;DHT22;12115;47.128;15.422;2023-05-02T05:19:19;12.20;99.90
23869;DHT22;12115;47.128;15.422;2023-05-02T05:21:46;12.30;99.90
23869;DHT22;12115;47.128;15.422;2023-05-02T05:24:41;12.30;99.90
23869;DHT22;12115;47.128;15.422;2023-05-02T05:27:21;12.30;99.90
23869;DHT22;12115;47.128;15.422;2023-05-02T05:30:05;12.40;99.90
23869;DHT22;12115;47.128;15.422;2023-05-02T05:32:33;12.40;99.90
23869;DHT22;12115;47.128;15.422;2023-05-02T05:35:00;12.40;99.90
23869;DHT22;12115;47.128;15.422;2023-05-02T05:37:33;12.40;99.90
23869;DHT22;12115;47.128;15.422;2023-05-02T05:40:06;12.50;99.90
23869;DHT22;12115;47.128;15.422;2023-05-02T05:42:36;12.50;99.90
23869;DHT22;12115;47.128;15.422;2023-05-02T05:48:02;12.50;99.90
23869;DHT22;12115;47.128;15.422;2023-05-02T05:50:34;12.50;99.90
23869;DHT22;12115;47.128;15.422;2023-05-02T05:53:01;12.50;99.90
23869;DHT22;12115;47.128;15.422;2023-05-02T05:55:29;12.50;99.90
23869;DHT22;12115;47.128;15.422;2023-05-02T05:58:21;12.60;99.90
23869;DHT22;12115;47.128;15.422;2023-05-02T06:00:50;12.60;99.90
23869;DHT22;12115;47.128;15.422;2023-05-02T06:03:17;12.50;99.90
23869;DHT22;12115;47.128;15.422;2023-05-02T06:05:45;12.50;99.90
23869;DHT22;12115;47.128;15.422;2023-05-02T06:08:13;12.50;99.90
23869;DHT22;12115;47.128;15.422;2023-05-02T06:10:40;12.50;99.90
23869;DHT22;12115;47.128;15.422;2023-05-02T06:13:07;12.60;99.90
23869;DHT22;12115;47.128;15.422;2023-05-02T06:15:38;12.60;99.90
23869;DHT22;12115;47.128;15.422;2023-05-02T06:18:06;12.70;99.90
23869;DHT22;12115;47.128;15.422;2023-05-02T06:20:35;12.70;99.90
23869;DHT22;12115;47.128;15.422;2023-05-02T06:23:10;12.70;99.90
23869;DHT22;12115;47.128;15.422;2023-05-02T06:25:41;12.70;99.90
23869;DHT22;12115;47.128;15.422;2023-05-02T06:28:08;12.70;99.90
23869;DHT22;12115;47.128;15.422;2023-05-02T06:30:35;12.70;99.90
23869;DHT22;12115;47.128;15.422;2023-05-02T06:33:04;12.70;99.90
23869;DHT22;12115;47.128;15.422;2023-05-02T06:35:31;12.80;99.90
23869;DHT22;12115;47.128;15.422;2023-05-02T06:38:22;12.80;99.90
23869;DHT22;12115;47.128;15.422;2023-05-02T06:40:50;12.80;99.90
23869;DHT22;12115;47.128;15.422;2023-05-02T06:43:18;12.80;99.90
23869;DHT22;12115;47.128;15.422;2023-05-02T06:45:45;12.90;99.90
23869;DHT22;12115;47.128;15.422;2023-05-02T06:48:12;12.90;99.90
23869;DHT22;12115;47.128;15.422;2023-05-02T06:50:41;12.90;99.90
23869;DHT22;12115;47.128;15.422;2023-05-02T06:53:17;12.90;99.90
23869;DHT22;12115;47.128;15.422;2023-05-02T06:55:45;13.00;99.90
23869;DHT22;12115;47.128;15.422;2023-05-02T06:58:14;13.00;99.90
23869;DHT22;12115;47.128;15.422;2023-05-02T07:00:42;13.00;99.90
23869;DHT22;12115;47.128;15.422;2023-05-02T07:03:09;13.10;99.90
23869;DHT22;12115;47.128;15.422;2023-05-02T07:05:39;13.10;99.90
23869;DHT22;12115;47.128;15.422;2023-05-02T07:08:07;13.10;99.90
23869;DHT22;12115;47.128;15.422;2023-05-02T07:10:35;13.20;99.90
23869;DHT22;12115;47.128;15.422;2023-05-02T07:13:02;13.20;99.90
23869;DHT22;12115;47.128;15.422;2023-05-02T07:15:30;13.20;99.90
23869;DHT22;12115;47.128;15.422;2023-05-02T07:17:57;13.30;99.90
23869;DHT22;12115;47.128;15.422;2023-05-02T07:20:24;13.30;99.90
23869;DHT22;12115;47.128;15.422;2023-05-02T07:22:52;13.30;99.90
23869;DHT22;12115;47.128;15.422;2023-05-02T07:25:19;13.30;99.90
23869;DHT22;12115;47.128;15.422;2023-05-02T07:27:47;13.30;99.90
23869;DHT22;12115;47.128;15.422;2023-05-02T07:30:14;13.30;99.90
23869;DHT22;12115;47.128;15.422;2023-05-02T07:32:42;13.30;99.90
23869;DHT22;12115;47.128;15.422;2023-05-02T07:35:09;13.30;99.90
23869;DHT22;12115;47.128;15.422;2023-05-02T07:37:36;13.30;99.90
23869;DHT22;12115;47.128;15.422;2023-05-02T07:40:28;13.40;99.90
23869;DHT22;12115;47.128;15.422;2023-05-02T07:42:57;13.30;99.90
23869;DHT22;12115;47.128;15.422;2023-05-02T07:45:27;13.40;99.90
23869;DHT22;12115;47.128;15.422;2023-05-02T07:47:54;13.40;99.90
23869;DHT22;12115;47.128;15.422;2023-05-02T07:50:46;13.40;99.90
23869;DHT22;12115;47.128;15.422;2023-05-02T07:53:14;13.40;99.90
23869;DHT22;12115;47.128;15.422;2023-05-02T07:55:41;13.50;99.90
23869;DHT22;12115;47.128;15.422;2023-05-02T07:58:09;13.50;99.90
23869;DHT22;12115;47.128;15.422;2023-05-02T08:00:36;13.50;99.90
23869;DHT22;12115;47.128;15.422;2023-05-02T08:03:03;13.60;99.90
23869;DHT22;12115;47.128;15.422;2023-05-02T08:05:31;13.60;99.90
23869;DHT22;12115;47.128;15.422;2023-05-02T08:07:59;13.60;99.90
23869;DHT22;12115;47.128;15.422;2023-05-02T08:10:28;13.60;99.90
23869;DHT22;12115;47.128;15.422;2023-05-02T08:12:55;13.70;99.90
23869;DHT22;12115;47.128;15.422;2023-05-02T08:15:22;13.80;99.90
23869;DHT22;12115;47.128;15.422;2023-05-02T08:17:53;13.80;99.90
23869;DHT22;12115;47.128;15.422;2023-05-02T08:20:20;13.80;99.90
23869;DHT22;12115;47.128;15.422;2023-05-02T08:23:07;13.80;99.90
23869;DHT22;12115;47.128;15.422;2023-05-02T08:25:34;13.80;99.90
23869;DHT22;12115;47.128;15.422;2023-05-02T08:28:02;13.80;99.90
23869;DHT22;12115;47.128;15.422;2023-05-02T08:30:29;13.80;99.90
23869;DHT22;12115;47.128;15.422;2023-05-02T08:32:57;13.90;99.90
23869;DHT22;12115;47.128;15.422;2023-05-02T08:39:04;14.00;99.90
23869;DHT22;12115;47.128;15.422;2023-05-02T08:41:34;14.10;99.90
23869;DHT22;12115;47.128;15.422;2023-05-02T08:44:02;14.10;99.90
23869;DHT22;12115;47.128;15.422;2023-05-02T08:46:30;14.20;99.90
23869;DHT22;12115;47.128;15.422;2023-05-02T08:48:59;14.20;99.90
23869;DHT22;12115;47.128;15.422;2023-05-02T08:51:29;14.30;99.90
23869;DHT22;12115;47.128;15.422;2023-05-02T08:53:59;14.40;99.90
23869;DHT22;12115;47.128;15.422;2023-05-02T08:56:28;14.50;99.90
23869;DHT22;12115;47.128;15.422;2023-05-02T08:58:56;14.60;99.90
23869;DHT22;12115;47.128;15.422;2023-05-02T09:01:34;14.70;99.90
23869;DHT22;12115;47.128;15.422;2023-05-02T09:04:52;14.80;99.90
23869;DHT22;12115;47.128;15.422;2023-05-02T09:07:20;14.80;99.90
23869;DHT22;12115;47.128;15.422;2023-05-02T09:09:48;14.90;99.90
23869;DHT22;12115;47.128;15.422;2023-05-02T09:12:16;15.00;99.90
23869;DHT22;12115;47.128;15.422;2023-05-02T09:15:15;15.10;99.90
23869;DHT22;12115;47.128;15.422;2023-05-02T09:17:47;15.10;99.90
23869;DHT22;12115;47.128;15.422;2023-05-02T09:20:16;15.20;99.90
23869;DHT22;12115;47.128;15.422;2023-05-02T09:22:57;15.30;99.90
23869;DHT22;12115;47.128;15.422;2023-05-02T09:25:43;15.30;99.90
23869;DHT22;12115;47.128;15.422;2023-05-02T09:28:10;15.40;99.90
23869;DHT22;12115;47.128;15.422;2023-05-02T09:30:38;15.30;99.90
23869;DHT22;12115;47.128;15.422;2023-05-02T09:33:31;15.40;99.90
23869;DHT22;12115;47.128;15.422;2023-05-02T09:35:59;15.40;99.90
23869;DHT22;12115;47.128;15.422;2023-05-02T09:41:38;15.40;99.90
23869;DHT22;12115;47.128;15.422;2023-05-02T09:44:09;15.60;99.90
23869;DHT22;12115;47.128;15.422;2023-05-02T09:46:40;15.60;99.90
23869;DHT22;12115;47.128;15.422;2023-05-02T09:49:08;15.70;99.90
23869;DHT22;12115;47.128;15.422;2023-05-02T09:51:40;15.70;99.90
23869;DHT22;12115;47.128;15.422;2023-05-02T09:54:09;15.70;99.90
23869;DHT22;12115;47.128;15.422;2023-05-02T09:56:53;15.80;99.90
23869;DHT22;12115;47.128;15.422;2023-05-02T09:59:23;15.80;99.90
23869;DHT22;12115;47.128;15.422;2023-05-02T10:02:01;15.90;99.90
23869;DHT22;12115;47.128;15.422;2023-05-02T10:04:30;16.00;99.90
23869;DHT22;12115;47.128;15.422;2023-05-02T10:06:58;16.00;99.90
23869;DHT22;12115;47.128;15.422;2023-05-02T10:09:25;16.00;99.90
23869;DHT22;12115;47.128;15.422;2023-05-02T10:12:01;16.00;99.90
23869;DHT22;12115;47.128;15.422;2023-05-02T10:14:38;16.10;99.90
23869;DHT22;12115;47.128;15.422;2023-05-02T10:17:15;16.10;99.90
23869;DHT22;12115;47.128;15.422;2023-05-02T10:19:54;16.10;99.90
23869;DHT22;12115;47.128;15.422;2023-05-02T10:22:22;16.10;99.90
23869;DHT22;12115;47.128;15.422;2023-05-02T10:24:52;16.00;99.90
23869;DHT22;12115;47.128;15.422;2023-05-02T10:27:19;16.10;99.90
23869;DHT22;12115;47.128;15.422;2023-05-02T10:29:46;16.10;99.90
23869;DHT22;12115;47.128;15.422;2023-05-02T10:32:16;16.10;99.90
23869;DHT22;12115;47.128;15.422;2023-05-02T10:34:45;16.10;99.90
23869;DHT22;12115;47.128;15.422;2023-05-02T10:37:14;16.10;99.90
23869;DHT22;12115;47.128;15.422;2023-05-02T10:39:41;16.10;99.90
23869;DHT22;12115;47.128;15.422;2023-05-02T10:42:09;16.10;99.90
23869;DHT22;12115;47.128;15.422;2023-05-02T10:44:39;16.10;99.90
23869;DHT22;12115;47.128;15.422;2023-05-02T10:47:23;16.20;99.90
23869;DHT22;12115;47.128;15.422;2023-05-02T10:49:58;16.20;99.90
23869;DHT22;12115;47.128;15.422;2023-05-02T10:52:30;16.20;99.90
23869;DHT22;12115;47.128;15.422;2023-05-02T10:55:18;16.20;99.90
23869;DHT22;12115;47.128;15.422;2023-05-02T11:00:32;16.20;99.90
23869;DHT22;12115;47.128;15.422;2023-05-02T11:03:00;16.10;99.90
23869;DHT22;12115;47.128;15.422;2023-05-02T11:05:28;16.10;99.90
23869;DHT22;12115;47.128;15.422;2023-05-02T11:10:41;16.10;99.90
23869;DHT22;12115;47.128;15.422;2023-05-02T11:13:08;16.10;99.90
23869;DHT22;12115;47.128;15.422;2023-05-02T11:18:12;16.00;99.90
23869;DHT22;12115;47.128;15.422;2023-05-02T11:20:43;16.00;99.90
23869;DHT22;12115;47.128;15.422;2023-05-02T11:25:49;16.00;99.90
23869;DHT22;12115;47.128;15.422;2023-05-02T11:31:05;15.90;99.90
23869;DHT22;12115;47.128;15.422;2023-05-02T11:33:32;15.90;99.90
23869;DHT22;12115;47.128;15.422;2023-05-02T11:36:00;15.90;99.90
23869;DHT22;12115;47.128;15.422;2023-05-02T11:38:35;15.90;99.90
23869;DHT22;12115;47.128;15.422;2023-05-02T11:41:02;15.80;99.90
23869;DHT22;12115;47.128;15.422;2023-05-02T11:43:30;15.80;99.90
23869;DHT22;12115;47.128;15.422;2023-05-02T11:46:00;15.80;99.90
23869;DHT22;12115;47.128;15.422;2023-05-02T11:48:29;15.80;99.90
23869;DHT22;12115;47.128;15.422;2023-05-02T11:50:59;15.70;99.90
23869;DHT22;12115;47.128;15.422;2023-05-02T11:53:39;15.70;99.90
23869;DHT22;12115;47.128;15.422;2023-05-02T11:56:07;15.60;99.90
23869;DHT22;12115;47.128;15.422;2023-05-02T11:59:00;15.60;99.90
23869;DHT22;12115;47.128;15.422;2023-05-02T12:01:28;15.60;99.90
23869;DHT22;12115;47.128;15.422;2023-05-02T12:04:27;15.60;99.90
23869;DHT22;12115;47.128;15.422;2023-05-02T12:06:57;15.60;99.90
23869;DHT22;12115;47.128;15.422;2023-05-02T12:09:25;15.60;99.90
23869;DHT22;12115;47.128;15.422;2023-05-02T12:11:52;15.60;99.90
23869;DHT22;12115;47.128;15.422;2023-05-02T12:14:28;15.60;99.90
23869;DHT22;12115;47.128;15.422;2023-05-02T12:16:58;15.50;99.90
23869;DHT22;12115;47.128;15.422;2023-05-02T12:19:27;15.50;99.90
23869;DHT22;12115;47.128;15.422;2023-05-02T12:21:54;15.50;99.90
23869;DHT22;12115;47.128;15.422;2023-05-02T12:24:22;15.40;99.90
23869;DHT22;12115;47.128;15.422;2023-05-02T12:26:49;15.40;99.90
23869;DHT22;12115;47.128;15.422;2023-05-02T12:29:42;15.50;99.90
23869;DHT22;12115;47.128;15.422;2023-05-02T12:32:10;15.40;99.90
23869;DHT22;12115;47.128;15.422;2023-05-02T12:34:39;15.40;99.90
23869;DHT22;12115;47.128;15.422;2023-05-02T12:37:07;15.30;99.90
23869;DHT22;12115;47.128;15.422;2023-05-02T12:39:41;15.30;99.90
23869;DHT22;12115;47.128;15.422;2023-05-02T12:42:13;15.20;99.90
23869;DHT22;12115;47.128;15.422;2023-05-02T12:44:46;15.20;99.90
23869;DHT22;12115;47.128;15.422;2023-05-02T12:47:15;15.20;99.90
23869;DHT22;12115;47.128;15.422;2023-05-02T12:49:54;15.20;99.90
23869;DHT22;12115;47.128;15.422;2023-05-02T12:52:49;15.10;99.90
23869;DHT22;12115;47.128;15.422;2023-05-02T12:55:17;15.00;99.90
23869;DHT22;12115;47.128;15.422;2023-05-02T12:57:46;15.00;99.90
23869;DHT22;12115;47.128;15.422;2023-05-02T13:00:16;15.00;99.90
23869;DHT22;12115;47.128;15.422;2023-05-02T13:02:44;15.00;99.90
23869;DHT22;12115;47.128;15.422;2023-05-02T13:07:42;14.90;99.90
23869;DHT22;12115;47.128;15.422;2023-05-02T13:10:10;14.90;99.90
23869;DHT22;12115;47.128;15.422;2023-05-02T13:12:38;14.80;99.90
23869;DHT22;12115;47.128;15.422;2023-05-02T13:15:07;14.70;99.90
23869;DHT22;12115;47.128;15.422;2023-05-02T13:17:34;14.70;99.90
23869;DHT22;12115;47.128;15.422;2023-05-02T13:20:02;14.60;99.90
23869;DHT22;12115;47.128;15.422;2023-05-02T13:22:30;14.70;99.90
23869;DHT22;12115;47.128;15.422;2023-05-02T13:24:58;14.60;99.90
23869;DHT22;12115;47.128;15.422;2023-05-02T13:27:25;14.60;99.90
23869;DHT22;12115;47.128;15.422;2023-05-02T13:29:53;14.70;99.90
23869;DHT22;12115;47.128;15.422;2023-05-02T13:32:20;14.70;99.90
23869;DHT22;12115;47.128;15.422;2023-05-02T13:34:48;14.60;99.90
23869;DHT22;12115;47.128;15.422;2023-05-02T13:37:15;14.50;99.90
23869;DHT22;12115;47.128;15.422;2023-05-02T13:39:42;14.50;99.90
23869;DHT22;12115;47.128;15.422;2023-05-02T13:42:10;14.40;99.90
23869;DHT22;12115;47.128;15.422;2023-05-02T13:44:37;14.50;99.90
23869;DHT22;12115;47.128;15.422;2023-05-02T13:47:05;14.40;99.90
23869;DHT22;12115;47.128;15.422;2023-05-02T13:49:32;14.40;99.90
23869;DHT22;12115;47.128;15.422;2023-05-02T13:51:59;14.40;99.90
23869;DHT22;12115;47.128;15.422;2023-05-02T13:54:27;14.40;99.90
23869;DHT22;12115;47.128;15.422;2023-05-02T13:56:54;14.40;99.90
23869;DHT22;12115;47.128;15.422;2023-05-02T13:59:21;14.30;99.90
23869;DHT22;12115;47.128;15.422;2023-05-02T14:01:53;14.30;99.90
23869;DHT22;12115;47.128;15.422;2023-05-02T14:04:20;14.20;99.90
23869;DHT22;12115;47.128;15.422;2023-05-02T14:06:49;14.30;99.90
23869;DHT22;12115;47.128;15.422;2023-05-02T14:09:17;14.20;99.90
23869;DHT22;12115;47.128;15.422;2023-05-02T14:11:44;14.20;99.90
23869;DHT22;12115;47.128;15.422;2023-05-02T14:14:13;14.20;99.90
23869;DHT22;12115;47.128;15.422;2023-05-02T14:16:40;14.10;99.90
23869;DHT22;12115;47.128;15.422;2023-05-02T14:19:08;14.10;99.90
23869;DHT22;12115;47.128;15.422;2023-05-02T14:21:36;14.10;99.90
23869;DHT22;12115;47.128;15.422;2023-05-02T14:24:05;14.10;99.90
23869;DHT22;12115;47.128;15.422;2023-05-02T14:26:32;14.10;99.90
23869;DHT22;12115;47.128;15.422;2023-05-02T14:29:00;14.10;99.90
23869;DHT22;12115;47.128;15.422;2023-05-02T14:31:27;14.10;99.90
23869;DHT22;12115;47.128;15.422;2023-05-02T14:33:54;14.10;99.90
23869;DHT22;12115;47.128;15.422;2023-05-02T14:36:22;14.10;99.90
23869;DHT22;12115;47.128;15.422;2023-05-02T14:38:49;14.10;99.90
23869;DHT22;12115;47.128;15.422;2023-05-02T14:41:16;14.00;99.90
23869;DHT22;12115;47.128;15.422;2023-05-02T14:43:44;14.00;99.90
23869;DHT22;12115;47.128;15.422;2023-05-02T14:46:11;13.90;99.90
23869;DHT22;12115;47.128;15.422;2023-05-02T14:48:38;13.90;99.90
23869;DHT22;12115;47.128;15.422;2023-05-02T14:51:06;13.90;99.90
23869;DHT22;12115;47.128;15.422;2023-05-02T14:53:33;13.90;99.90
23869;DHT22;12115;47.128;15.422;2023-05-02T14:56:00;13.80;99.90
23869;DHT22;12115;47.128;15.422;2023-05-02T14:58:28;13.80;99.90
23869;DHT22;12115;47.128;15.422;2023-05-02T15:00:55;13.80;99.90
23869;DHT22;12115;47.128;15.422;2023-05-02T15:03:22;13.80;99.90
23869;DHT22;12115;47.128;15.422;2023-05-02T15:05:50;13.80;99.90
23869;DHT22;12115;47.128;15.422;2023-05-02T15:08:18;13.80;99.90
23869;DHT22;12115;47.128;15.422;2023-05-02T15:10:45;13.80;99.90
23869;DHT22;12115;47.128;15.422;2023-05-02T15:13:12;13.80;99.90
23869;DHT22;12115;47.128;15.422;2023-05-02T15:15:40;13.80;99.90
23869;DHT22;12115;47.128;15.422;2023-05-02T15:18:07;13.70;99.90
23869;DHT22;12115;47.128;15.422;2023-05-02T15:20:34;13.70;99.90
23869;DHT22;12115;47.128;15.422;2023-05-02T15:23:02;13.60;99.90
23869;DHT22;12115;47.128;15.422;2023-05-02T15:25:30;13.70;99.90
23869;DHT22;12115;47.128;15.422;2023-05-02T15:28:00;13.70;99.90
23869;DHT22;12115;47.128;15.422;2023-05-02T15:30:29;13.60;99.90
23869;DHT22;12115;47.128;15.422;2023-05-02T15:32:57;13.60;99.90
23869;DHT22;12115;47.128;15.422;2023-05-02T15:35:25;13.60;99.90
23869;DHT22;12115;47.128;15.422;2023-05-02T15:37:53;13.50;99.90
23869;DHT22;12115;47.128;15.422;2023-05-02T15:40:21;13.60;99.90
23869;DHT22;12115;47.128;15.422;2023-05-02T15:42:49;13.50;99.90
23869;DHT22;12115;47.128;15.422;2023-05-02T15:45:16;13.50;99.90
23869;DHT22;12115;47.128;15.422;2023-05-02T15:47:44;13.50;99.90
23869;DHT22;12115;47.128;15.422;2023-05-02T15:50:12;13.40;99.90
23869;DHT22;12115;47.128;15.422;2023-05-02T15:52:39;13.40;99.90
23869;DHT22;12115;47.128;15.422;2023-05-02T15:55:07;13.40;99.90
23869;DHT22;12115;47.128;15.422;2023-05-02T15:57:35;13.30;99.90
23869;DHT22;12115;47.128;15.422;2023-05-02T16:00:02;13.30;99.90
23869;DHT22;12115;47.128;15.422;2023-05-02T16:02:30;13.30;99.90
23869;DHT22;12115;47.128;15.422;2023-05-02T16:04:58;13.30;99.90
23869;DHT22;12115;47.128;15.422;2023-05-02T16:07:25;13.20;99.90
23869;DHT22;12115;47.128;15.422;2023-05-02T16:09:52;13.20;99.90
23869;DHT22;12115;47.128;15.422;2023-05-02T16:12:20;13.20;99.90
23869;DHT22;12115;47.128;15.422;2023-05-02T16:14:47;13.10;99.90
23869;DHT22;12115;47.128;15.422;2023-05-02T16:17:14;13.10;99.90
23869;DHT22;12115;47.128;15.422;2023-05-02T16:19:42;13.20;99.90